sensor_id;sensor_type;location;lat;lon;timestamp;P1;durP1;ratioP1;P2;durP2;ratioP2
54177;SDS011;40085;53.004;6.770;2022-09-20T00:01:00;3.17;;;0.82;;
54177;SDS011;40085;53.004;6.770;2022-09-20T00:03:35;1.08;;;0.50;;
54177;SDS011;40085;53.004;6.770;2022-09-20T00:06:05;2.55;;;0.60;;
54177;SDS011;40085;53.004;6.770;2022-09-20T00:08:37;2.92;;;0.57;;
54177;SDS011;40085;53.004;6.770;2022-09-20T00:11:04;2.90;;;0.77;;
54177;SDS011;40085;53.004;6.770;2022-09-20T00:13:32;2.72;;;0.68;;
54177;SDS011;40085;53.004;6.770;2022-09-20T00:15:59;2.42;;;0.52;;
54177;SDS011;40085;53.004;6.770;2022-09-20T00:20:56;4.30;;;0.63;;
54177;SDS011;40085;53.004;6.770;2022-09-20T00:23:22;1.10;;;0.52;;
54177;SDS011;40085;53.004;6.770;2022-09-20T00:25:58;0.55;;;0.45;;
54177;SDS011;40085;53.004;6.770;2022-09-20T00:28:25;0.93;;;0.60;;
54177;SDS011;40085;53.004;6.770;2022-09-20T00:30:51;4.43;;;0.70;;
54177;SDS011;40085;53.004;6.770;2022-09-20T00:33:19;1.27;;;0.45;;
54177;SDS011;40085;53.004;6.770;2022-09-20T00:35:45;1.38;;;0.77;;
54177;SDS011;40085;53.004;6.770;2022-09-20T00:38:11;3.75;;;0.50;;
54177;SDS011;40085;53.004;6.770;2022-09-20T00:40:39;0.40;;;0.40;;
54177;SDS011;40085;53.004;6.770;2022-09-20T00:43:06;0.90;;;0.50;;
54177;SDS011;40085;53.004;6.770;2022-09-20T00:45:34;0.75;;;0.40;;
54177;SDS011;40085;53.004;6.770;2022-09-20T00:50:57;1.52;;;0.32;;
54177;SDS011;40085;53.004;6.770;2022-09-20T00:56:09;1.05;;;0.57;;
54177;SDS011;40085;53.004;6.770;2022-09-20T00:59:16;2.40;;;0.70;;
54177;SDS011;40085;53.004;6.770;2022-09-20T01:01:43;1.08;;;0.40;;
54177;SDS011;40085;53.004;6.770;2022-09-20T01:04:11;1.67;;;0.47;;
54177;SDS011;40085;53.004;6.770;2022-09-20T01:06:40;0.70;;;0.52;;
54177;SDS011;40085;53.004;6.770;2022-09-20T01:09:09;4.55;;;0.38;;
54177;SDS011;40085;53.004;6.770;2022-09-20T01:11:35;3.63;;;0.95;;
54177;SDS011;40085;53.004;6.770;2022-09-20T01:14:01;2.40;;;0.40;;
54177;SDS011;40085;53.004;6.770;2022-09-20T01:16:28;2.03;;;0.52;;
54177;SDS011;40085;53.004;6.770;2022-09-20T01:18:59;1.15;;;0.52;;
54177;SDS011;40085;53.004;6.770;2022-09-20T01:21:29;1.48;;;0.47;;
54177;SDS011;40085;53.004;6.770;2022-09-20T01:26:37;1.48;;;0.50;;
54177;SDS011;40085;53.004;6.770;2022-09-20T01:32:46;1.65;;;0.45;;
54177;SDS011;40085;53.004;6.770;2022-09-20T01:40:48;1.98;;;0.35;;
54177;SDS011;40085;53.004;6.770;2022-09-20T01:46:20;1.33;;;0.57;;
54177;SDS011;40085;53.004;6.770;2022-09-20T01:54:40;4.32;;;0.52;;
54177;SDS011;40085;53.004;6.770;2022-09-20T01:57:37;3.50;;;0.80;;
54177;SDS011;40085;53.004;6.770;2022-09-20T02:00:25;3.58;;;0.63;;
54177;SDS011;40085;53.004;6.770;2022-09-20T02:11:19;1.30;;;0.68;;
54177;SDS011;40085;53.004;6.770;2022-09-20T02:13:56;0.93;;;0.40;;
54177;SDS011;40085;53.004;6.770;2022-09-20T02:16:56;1.10;;;0.55;;
54177;SDS011;40085;53.004;6.770;2022-09-20T02:28:18;2.25;;;0.57;;
54177;SDS011;40085;53.004;6.770;2022-09-20T02:37:14;2.40;;;0.60;;
54177;SDS011;40085;53.004;6.770;2022-09-20T02:42:17;0.68;;;0.40;;
54177;SDS011;40085;53.004;6.770;2022-09-20T02:47:39;1.40;;;0.60;;
54177;SDS011;40085;53.004;6.770;2022-09-20T02:59:00;0.43;;;0.40;;
54177;SDS011;40085;53.004;6.770;2022-09-20T03:01:50;2.28;;;0.82;;
54177;SDS011;40085;53.004;6.770;2022-09-20T03:10:10;1.13;;;0.40;;
54177;SDS011;40085;53.004;6.770;2022-09-20T03:13:09;2.13;;;0.57;;
54177;SDS011;40085;53.004;6.770;2022-09-20T03:18:52;2.25;;;0.82;;
54177;SDS011;40085;53.004;6.770;2022-09-20T03:21:49;0.77;;;0.38;;
54177;SDS011;40085;53.004;6.770;2022-09-20T03:32:46;2.42;;;0.47;;
54177;SDS011;40085;53.004;6.770;2022-09-20T03:35:44;3.67;;;0.85;;
54177;SDS011;40085;53.004;6.770;2022-09-20T03:44:14;0.30;;;0.30;;
54177;SDS011;40085;53.004;6.770;2022-09-20T03:46:45;0.20;;;0.20;;
54177;SDS011;40085;53.004;6.770;2022-09-20T04:05:46;0.63;;;0.55;;
54177;SDS011;40085;53.004;6.770;2022-09-20T04:11:27;1.67;;;0.68;;
54177;SDS011;40085;53.004;6.770;2022-09-20T04:19:47;1.75;;;0.40;;
54177;SDS011;40085;53.004;6.770;2022-09-20T04:22:21;0.43;;;0.43;;
54177;SDS011;40085;53.004;6.770;2022-09-20T04:25:02;4.90;;;0.95;;
54177;SDS011;40085;53.004;6.770;2022-09-20T04:27:45;1.55;;;0.50;;
54177;SDS011;40085;53.004;6.770;2022-09-20T04:38:37;1.63;;;0.87;;
54177;SDS011;40085;53.004;6.770;2022-09-20T05:05:55;2.97;;;0.57;;
54177;SDS011;40085;53.004;6.770;2022-09-20T05:24:38;0.50;;;0.50;;
54177;SDS011;40085;53.004;6.770;2022-09-20T05:30:04;4.30;;;0.50;;
54177;SDS011;40085;53.004;6.770;2022-09-20T05:38:04;1.80;;;0.77;;
54177;SDS011;40085;53.004;6.770;2022-09-20T05:40:45;2.60;;;0.73;;
54177;SDS011;40085;53.004;6.770;2022-09-20T05:43:32;0.47;;;0.40;;
54177;SDS011;40085;53.004;6.770;2022-09-20T05:46:12;1.00;;;0.50;;
54177;SDS011;40085;53.004;6.770;2022-09-20T05:49:01;1.15;;;0.65;;
54177;SDS011;40085;53.004;6.770;2022-09-20T05:57:04;0.82;;;0.55;;
54177;SDS011;40085;53.004;6.770;2022-09-20T06:02:39;1.80;;;0.60;;
54177;SDS011;40085;53.004;6.770;2022-09-20T06:05:31;0.35;;;0.35;;
54177;SDS011;40085;53.004;6.770;2022-09-20T06:13:49;0.77;;;0.40;;
54177;SDS011;40085;53.004;6.770;2022-09-20T06:19:28;5.93;;;2.13;;
54177;SDS011;40085;53.004;6.770;2022-09-20T06:27:57;2.33;;;0.40;;
54177;SDS011;40085;53.004;6.770;2022-09-20T06:30:55;0.95;;;0.40;;
54177;SDS011;40085;53.004;6.770;2022-09-20T06:33:22;3.08;;;0.52;;
54177;SDS011;40085;53.004;6.770;2022-09-20T06:36:00;6.45;;;0.60;;
54177;SDS011;40085;53.004;6.770;2022-09-20T06:41:33;1.65;;;0.63;;
54177;SDS011;40085;53.004;6.770;2022-09-20T06:44:00;2.65;;;0.60;;
54177;SDS011;40085;53.004;6.770;2022-09-20T06:46:31;2.63;;;0.65;;
54177;SDS011;40085;53.004;6.770;2022-09-20T06:48:59;1.27;;;0.40;;
54177;SDS011;40085;53.004;6.770;2022-09-20T06:51:26;0.50;;;0.40;;
54177;SDS011;40085;53.004;6.770;2022-09-20T06:53:53;1.58;;;0.30;;
54177;SDS011;40085;53.004;6.770;2022-09-20T06:56:21;1.02;;;0.60;;
54177;SDS011;40085;53.004;6.770;2022-09-20T06:58:50;1.55;;;0.80;;
54177;SDS011;40085;53.004;6.770;2022-09-20T07:01:17;0.30;;;0.30;;
54177;SDS011;40085;53.004;6.770;2022-09-20T07:03:43;3.70;;;0.73;;
54177;SDS011;40085;53.004;6.770;2022-09-20T07:06:09;2.40;;;0.50;;
54177;SDS011;40085;53.004;6.770;2022-09-20T07:08:35;3.33;;;0.50;;
54177;SDS011;40085;53.004;6.770;2022-09-20T07:11:15;2.35;;;0.93;;
54177;SDS011;40085;53.004;6.770;2022-09-20T07:13:44;1.15;;;0.60;;
54177;SDS011;40085;53.004;6.770;2022-09-20T07:16:14;1.10;;;0.55;;
54177;SDS011;40085;53.004;6.770;2022-09-20T07:18:40;0.40;;;0.40;;
54177;SDS011;40085;53.004;6.770;2022-09-20T07:21:13;0.85;;;0.57;;
54177;SDS011;40085;53.004;6.770;2022-09-20T07:23:40;3.75;;;0.60;;
54177;SDS011;40085;53.004;6.770;2022-09-20T07:26:06;0.45;;;0.45;;
54177;SDS011;40085;53.004;6.770;2022-09-20T07:28:45;0.38;;;0.32;;
54177;SDS011;40085;53.004;6.770;2022-09-20T07:31:12;0.80;;;0.70;;
54177;SDS011;40085;53.004;6.770;2022-09-20T07:33:38;1.83;;;0.40;;
54177;SDS011;40085;53.004;6.770;2022-09-20T07:36:04;0.28;;;0.28;;
54177;SDS011;40085;53.004;6.770;2022-09-20T07:38:29;1.00;;;0.60;;
54177;SDS011;40085;53.004;6.770;2022-09-20T07:40:56;2.78;;;0.40;;
54177;SDS011;40085;53.004;6.770;2022-09-20T07:43:23;1.98;;;0.38;;
54177;SDS011;40085;53.004;6.770;2022-09-20T07:45:52;0.52;;;0.20;;
54177;SDS011;40085;53.004;6.770;2022-09-20T07:48:41;1.17;;;0.45;;
54177;SDS011;40085;53.004;6.770;2022-09-20T07:51:07;1.20;;;0.38;;
54177;SDS011;40085;53.004;6.770;2022-09-20T07:53:37;2.53;;;0.50;;
54177;SDS011;40085;53.004;6.770;2022-09-20T07:58:31;0.85;;;0.60;;
54177;SDS011;40085;53.004;6.770;2022-09-20T08:00:59;0.50;;;0.35;;
54177;SDS011;40085;53.004;6.770;2022-09-20T08:03:30;2.75;;;0.50;;
54177;SDS011;40085;53.004;6.770;2022-09-20T08:05:58;2.95;;;0.50;;
54177;SDS011;40085;53.004;6.770;2022-09-20T08:08:25;1.75;;;0.38;;
54177;SDS011;40085;53.004;6.770;2022-09-20T08:10:51;2.65;;;0.30;;
54177;SDS011;40085;53.004;6.770;2022-09-20T08:13:19;1.00;;;0.50;;
54177;SDS011;40085;53.004;6.770;2022-09-20T08:15:44;0.30;;;0.30;;
54177;SDS011;40085;53.004;6.770;2022-09-20T08:18:12;0.22;;;0.22;;
54177;SDS011;40085;53.004;6.770;2022-09-20T08:20:40;1.33;;;0.32;;
54177;SDS011;40085;53.004;6.770;2022-09-20T08:23:05;0.28;;;0.28;;
54177;SDS011;40085;53.004;6.770;2022-09-20T08:25:33;0.35;;;0.35;;
54177;SDS011;40085;53.004;6.770;2022-09-20T08:27:59;0.20;;;0.20;;
54177;SDS011;40085;53.004;6.770;2022-09-20T08:30:25;0.98;;;0.40;;
54177;SDS011;40085;53.004;6.770;2022-09-20T08:32:50;0.65;;;0.30;;
54177;SDS011;40085;53.004;6.770;2022-09-20T08:35:17;0.65;;;0.30;;
54177;SDS011;40085;53.004;6.770;2022-09-20T08:37:43;0.95;;;0.35;;
54177;SDS011;40085;53.004;6.770;2022-09-20T08:40:13;0.68;;;0.30;;
54177;SDS011;40085;53.004;6.770;2022-09-20T08:42:40;0.30;;;0.30;;
54177;SDS011;40085;53.004;6.770;2022-09-20T08:45:13;0.22;;;0.22;;
54177;SDS011;40085;53.004;6.770;2022-09-20T08:47:50;0.20;;;0.20;;
54177;SDS011;40085;53.004;6.770;2022-09-20T08:50:22;0.28;;;0.20;;
54177;SDS011;40085;53.004;6.770;2022-09-20T08:52:49;1.33;;;0.30;;
54177;SDS011;40085;53.004;6.770;2022-09-20T08:55:22;0.20;;;0.20;;
54177;SDS011;40085;53.004;6.770;2022-09-20T08:57:53;0.20;;;0.20;;
54177;SDS011;40085;53.004;6.770;2022-09-20T09:00:28;0.25;;;0.22;;
54177;SDS011;40085;53.004;6.770;2022-09-20T09:02:57;0.63;;;0.32;;
54177;SDS011;40085;53.004;6.770;2022-09-20T09:05:34;1.83;;;0.40;;
54177;SDS011;40085;53.004;6.770;2022-09-20T09:10:41;1.73;;;0.60;;
54177;SDS011;40085;53.004;6.770;2022-09-20T09:13:13;0.90;;;0.30;;
54177;SDS011;40085;53.004;6.770;2022-09-20T09:15:48;0.30;;;0.30;;
54177;SDS011;40085;53.004;6.770;2022-09-20T09:18:18;0.32;;;0.32;;
54177;SDS011;40085;53.004;6.770;2022-09-20T09:20:43;1.35;;;0.30;;
54177;SDS011;40085;53.004;6.770;2022-09-20T09:23:20;1.60;;;0.52;;
54177;SDS011;40085;53.004;6.770;2022-09-20T09:25:51;1.60;;;0.20;;
54177;SDS011;40085;53.004;6.770;2022-09-20T09:28:25;0.98;;;0.28;;
54177;SDS011;40085;53.004;6.770;2022-09-20T09:31:10;0.63;;;0.30;;
54177;SDS011;40085;53.004;6.770;2022-09-20T09:33:44;0.40;;;0.40;;
54177;SDS011;40085;53.004;6.770;2022-09-20T09:36:21;0.47;;;0.22;;
54177;SDS011;40085;53.004;6.770;2022-09-20T09:38:49;0.30;;;0.20;;
54177;SDS011;40085;53.004;6.770;2022-09-20T09:41:35;0.55;;;0.20;;
54177;SDS011;40085;53.004;6.770;2022-09-20T09:44:03;1.95;;;0.63;;
54177;SDS011;40085;53.004;6.770;2022-09-20T09:46:36;2.30;;;0.63;;
54177;SDS011;40085;53.004;6.770;2022-09-20T09:51:32;0.38;;;0.20;;
54177;SDS011;40085;53.004;6.770;2022-09-20T09:53:58;0.75;;;0.40;;
54177;SDS011;40085;53.004;6.770;2022-09-20T10:16:24;0.47;;;0.30;;
54177;SDS011;40085;53.004;6.770;2022-09-20T10:19:21;0.20;;;0.20;;
54177;SDS011;40085;53.004;6.770;2022-09-20T10:38:14;0.32;;;0.28;;
54177;SDS011;40085;53.004;6.770;2022-09-20T10:40:57;4.82;;;0.60;;
54177;SDS011;40085;53.004;6.770;2022-09-20T10:43:52;2.05;;;0.50;;
54177;SDS011;40085;53.004;6.770;2022-09-20T10:46:43;0.35;;;0.35;;
54177;SDS011;40085;53.004;6.770;2022-09-20T10:55:25;1.13;;;0.50;;
54177;SDS011;40085;53.004;6.770;2022-09-20T11:08:52;0.90;;;0.40;;
54177;SDS011;40085;53.004;6.770;2022-09-20T11:11:29;1.65;;;0.55;;
54177;SDS011;40085;53.004;6.770;2022-09-20T11:16:53;0.20;;;0.20;;
54177;SDS011;40085;53.004;6.770;2022-09-20T11:19:42;0.20;;;0.10;;
54177;SDS011;40085;53.004;6.770;2022-09-20T11:22:22;0.35;;;0.15;;
54177;SDS011;40085;53.004;6.770;2022-09-20T11:25:03;0.60;;;0.30;;
54177;SDS011;40085;53.004;6.770;2022-09-20T11:37:41;1.00;;;0.20;;
54177;SDS011;40085;53.004;6.770;2022-09-20T11:42:44;0.45;;;0.22;;
54177;SDS011;40085;53.004;6.770;2022-09-20T11:45:12;0.30;;;0.20;;
54177;SDS011;40085;53.004;6.770;2022-09-20T11:47:39;1.75;;;0.40;;
54177;SDS011;40085;53.004;6.770;2022-09-20T11:53:05;0.17;;;0.17;;
54177;SDS011;40085;53.004;6.770;2022-09-20T11:56:11;1.55;;;0.50;;
54177;SDS011;40085;53.004;6.770;2022-09-20T12:06:37;1.52;;;0.50;;
54177;SDS011;40085;53.004;6.770;2022-09-20T12:09:14;0.93;;;0.22;;
54177;SDS011;40085;53.004;6.770;2022-09-20T12:11:51;1.05;;;0.25;;
54177;SDS011;40085;53.004;6.770;2022-09-20T12:14:19;1.02;;;0.40;;
54177;SDS011;40085;53.004;6.770;2022-09-20T12:16:46;0.85;;;0.35;;
54177;SDS011;40085;53.004;6.770;2022-09-20T12:19:14;2.20;;;0.40;;
54177;SDS011;40085;53.004;6.770;2022-09-20T12:24:32;3.65;;;0.40;;
54177;SDS011;40085;53.004;6.770;2022-09-20T12:32:42;1.08;;;0.30;;
54177;SDS011;40085;53.004;6.770;2022-09-20T12:43:30;0.15;;;0.15;;
54177;SDS011;40085;53.004;6.770;2022-09-20T12:45:58;0.95;;;0.20;;
54177;SDS011;40085;53.004;6.770;2022-09-20T12:48:33;0.47;;;0.20;;
54177;SDS011;40085;53.004;6.770;2022-09-20T12:51:16;0.43;;;0.30;;
54177;SDS011;40085;53.004;6.770;2022-09-20T12:54:05;0.45;;;0.25;;
54177;SDS011;40085;53.004;6.770;2022-09-20T12:56:34;0.60;;;0.30;;
54177;SDS011;40085;53.004;6.770;2022-09-20T12:59:03;1.92;;;0.20;;
54177;SDS011;40085;53.004;6.770;2022-09-20T13:01:33;4.25;;;0.43;;
54177;SDS011;40085;53.004;6.770;2022-09-20T13:09:57;3.00;;;0.50;;
54177;SDS011;40085;53.004;6.770;2022-09-20T13:12:25;1.10;;;0.40;;
54177;SDS011;40085;53.004;6.770;2022-09-20T13:14:52;0.52;;;0.30;;
54177;SDS011;40085;53.004;6.770;2022-09-20T13:17:24;0.13;;;0.13;;
54177;SDS011;40085;53.004;6.770;2022-09-20T13:19:54;1.13;;;0.30;;
54177;SDS011;40085;53.004;6.770;2022-09-20T13:24:56;2.60;;;0.45;;
54177;SDS011;40085;53.004;6.770;2022-09-20T13:27:28;0.43;;;0.15;;
54177;SDS011;40085;53.004;6.770;2022-09-20T13:32:48;0.35;;;0.17;;
54177;SDS011;40085;53.004;6.770;2022-09-20T13:35:19;1.00;;;0.52;;
54177;SDS011;40085;53.004;6.770;2022-09-20T13:43:22;0.75;;;0.22;;
54177;SDS011;40085;53.004;6.770;2022-09-20T13:45:55;1.10;;;0.38;;
54177;SDS011;40085;53.004;6.770;2022-09-20T13:48:27;1.05;;;0.30;;
54177;SDS011;40085;53.004;6.770;2022-09-20T13:50:54;0.65;;;0.30;;
54177;SDS011;40085;53.004;6.770;2022-09-20T13:53:21;0.10;;;0.10;;
54177;SDS011;40085;53.004;6.770;2022-09-20T13:55:49;0.95;;;0.28;;
54177;SDS011;40085;53.004;6.770;2022-09-20T13:58:25;0.60;;;0.30;;
54177;SDS011;40085;53.004;6.770;2022-09-20T14:00:58;0.40;;;0.30;;
54177;SDS011;40085;53.004;6.770;2022-09-20T14:03:26;0.38;;;0.30;;
54177;SDS011;40085;53.004;6.770;2022-09-20T14:05:53;3.92;;;0.40;;
54177;SDS011;40085;53.004;6.770;2022-09-20T14:08:22;0.95;;;0.63;;
54177;SDS011;40085;53.004;6.770;2022-09-20T14:13:38;1.50;;;0.40;;
54177;SDS011;40085;53.004;6.770;2022-09-20T14:16:06;1.80;;;0.22;;
54177;SDS011;40085;53.004;6.770;2022-09-20T14:18:33;0.30;;;0.30;;
54177;SDS011;40085;53.004;6.770;2022-09-20T14:21:01;2.42;;;0.52;;
54177;SDS011;40085;53.004;6.770;2022-09-20T14:23:29;1.58;;;0.47;;
54177;SDS011;40085;53.004;6.770;2022-09-20T14:28:40;1.75;;;0.40;;
54177;SDS011;40085;53.004;6.770;2022-09-20T14:31:13;1.90;;;0.43;;
54177;SDS011;40085;53.004;6.770;2022-09-20T14:33:50;0.93;;;0.43;;
54177;SDS011;40085;53.004;6.770;2022-09-20T14:36:20;2.05;;;0.43;;
54177;SDS011;40085;53.004;6.770;2022-09-20T14:38:49;1.05;;;0.45;;
54177;SDS011;40085;53.004;6.770;2022-09-20T14:43:56;0.20;;;0.20;;
54177;SDS011;40085;53.004;6.770;2022-09-20T14:46:28;0.35;;;0.20;;
54177;SDS011;40085;53.004;6.770;2022-09-20T14:52:20;0.45;;;0.28;;
54177;SDS011;40085;53.004;6.770;2022-09-20T14:55:37;0.88;;;0.40;;
54177;SDS011;40085;53.004;6.770;2022-09-20T14:57:47;2.42;;;0.40;;
54177;SDS011;40085;53.004;6.770;2022-09-20T15:00:14;2.33;;;0.40;;
54177;SDS011;40085;53.004;6.770;2022-09-20T15:02:41;0.30;;;0.30;;
54177;SDS011;40085;53.004;6.770;2022-09-20T15:05:15;0.50;;;0.30;;
54177;SDS011;40085;53.004;6.770;2022-09-20T15:07:52;0.38;;;0.20;;
54177;SDS011;40085;53.004;6.770;2022-09-20T15:10:18;1.45;;;0.30;;
54177;SDS011;40085;53.004;6.770;2022-09-20T15:12:45;0.20;;;0.20;;
54177;SDS011;40085;53.004;6.770;2022-09-20T15:15:12;0.50;;;0.17;;
54177;SDS011;40085;53.004;6.770;2022-09-20T15:17:39;0.50;;;0.20;;
54177;SDS011;40085;53.004;6.770;2022-09-20T15:20:11;0.93;;;0.30;;
54177;SDS011;40085;53.004;6.770;2022-09-20T15:22:39;0.13;;;0.13;;
54177;SDS011;40085;53.004;6.770;2022-09-20T15:25:05;0.45;;;0.20;;
54177;SDS011;40085;53.004;6.770;2022-09-20T15:27:31;0.43;;;0.20;;
54177;SDS011;40085;53.004;6.770;2022-09-20T15:29:57;0.55;;;0.30;;
54177;SDS011;40085;53.004;6.770;2022-09-20T15:32:23;0.28;;;0.20;;
54177;SDS011;40085;53.004;6.770;2022-09-20T15:34:49;0.30;;;0.20;;
54177;SDS011;40085;53.004;6.770;2022-09-20T15:37:15;0.25;;;0.20;;
54177;SDS011;40085;53.004;6.770;2022-09-20T15:39:41;0.98;;;0.32;;
54177;SDS011;40085;53.004;6.770;2022-09-20T15:42:06;2.83;;;0.40;;
54177;SDS011;40085;53.004;6.770;2022-09-20T15:44:33;0.75;;;0.20;;
54177;SDS011;40085;53.004;6.770;2022-09-20T15:46:59;0.82;;;0.35;;
54177;SDS011;40085;53.004;6.770;2022-09-20T15:49:25;2.65;;;0.30;;
54177;SDS011;40085;53.004;6.770;2022-09-20T15:51:51;2.42;;;0.40;;
54177;SDS011;40085;53.004;6.770;2022-09-20T15:54:17;0.55;;;0.20;;
54177;SDS011;40085;53.004;6.770;2022-09-20T15:56:42;0.20;;;0.20;;
54177;SDS011;40085;53.004;6.770;2022-09-20T15:59:09;0.25;;;0.25;;
54177;SDS011;40085;53.004;6.770;2022-09-20T16:01:37;0.35;;;0.30;;
54177;SDS011;40085;53.004;6.770;2022-09-20T16:04:11;0.93;;;0.30;;
54177;SDS011;40085;53.004;6.770;2022-09-20T16:06:38;1.27;;;0.40;;
54177;SDS011;40085;53.004;6.770;2022-09-20T16:09:05;0.30;;;0.20;;
54177;SDS011;40085;53.004;6.770;2022-09-20T16:11:32;0.90;;;0.20;;
54177;SDS011;40085;53.004;6.770;2022-09-20T16:13:58;1.00;;;0.30;;
54177;SDS011;40085;53.004;6.770;2022-09-20T16:16:25;0.55;;;0.35;;
54177;SDS011;40085;53.004;6.770;2022-09-20T16:18:52;1.95;;;0.45;;
54177;SDS011;40085;53.004;6.770;2022-09-20T16:21:37;0.57;;;0.35;;
54177;SDS011;40085;53.004;6.770;2022-09-20T16:24:05;0.70;;;0.38;;
54177;SDS011;40085;53.004;6.770;2022-09-20T16:26:31;0.80;;;0.60;;
54177;SDS011;40085;53.004;6.770;2022-09-20T16:28:58;0.80;;;0.40;;
54177;SDS011;40085;53.004;6.770;2022-09-20T16:31:27;0.95;;;0.40;;
54177;SDS011;40085;53.004;6.770;2022-09-20T16:33:57;0.30;;;0.30;;
54177;SDS011;40085;53.004;6.770;2022-09-20T16:36:27;3.78;;;0.47;;
54177;SDS011;40085;53.004;6.770;2022-09-20T16:38:53;2.42;;;0.40;;
54177;SDS011;40085;53.004;6.770;2022-09-20T16:41:20;0.20;;;0.20;;
54177;SDS011;40085;53.004;6.770;2022-09-20T16:43:50;0.38;;;0.20;;
54177;SDS011;40085;53.004;6.770;2022-09-20T16:46:20;2.42;;;0.22;;
54177;SDS011;40085;53.004;6.770;2022-09-20T16:48:49;0.40;;;0.30;;
54177;SDS011;40085;53.004;6.770;2022-09-20T16:51:18;0.80;;;0.30;;
54177;SDS011;40085;53.004;6.770;2022-09-20T16:53:45;0.25;;;0.25;;
54177;SDS011;40085;53.004;6.770;2022-09-20T16:59:58;2.92;;;0.50;;
54177;SDS011;40085;53.004;6.770;2022-09-20T17:02:24;2.17;;;0.60;;
54177;SDS011;40085;53.004;6.770;2022-09-20T17:04:50;2.75;;;0.30;;
54177;SDS011;40085;53.004;6.770;2022-09-20T17:07:16;0.47;;;0.40;;
54177;SDS011;40085;53.004;6.770;2022-09-20T17:09:42;1.00;;;0.30;;
54177;SDS011;40085;53.004;6.770;2022-09-20T17:12:07;0.30;;;0.30;;
54177;SDS011;40085;53.004;6.770;2022-09-20T17:14:33;0.75;;;0.40;;
54177;SDS011;40085;53.004;6.770;2022-09-20T17:17:00;1.10;;;0.50;;
54177;SDS011;40085;53.004;6.770;2022-09-20T17:19:26;2.53;;;0.40;;
54177;SDS011;40085;53.004;6.770;2022-09-20T17:21:52;0.60;;;0.30;;
54177;SDS011;40085;53.004;6.770;2022-09-20T17:24:19;0.38;;;0.38;;
54177;SDS011;40085;53.004;6.770;2022-09-20T17:26:46;0.45;;;0.30;;
54177;SDS011;40085;53.004;6.770;2022-09-20T17:29:13;1.45;;;0.35;;
54177;SDS011;40085;53.004;6.770;2022-09-20T17:31:42;0.35;;;0.22;;
54177;SDS011;40085;53.004;6.770;2022-09-20T17:34:10;1.27;;;0.40;;
54177;SDS011;40085;53.004;6.770;2022-09-20T17:36:39;0.43;;;0.38;;
54177;SDS011;40085;53.004;6.770;2022-09-20T17:39:06;0.65;;;0.52;;
54177;SDS011;40085;53.004;6.770;2022-09-20T17:41:37;0.63;;;0.50;;
54177;SDS011;40085;53.004;6.770;2022-09-20T17:44:04;1.13;;;0.38;;
54177;SDS011;40085;53.004;6.770;2022-09-20T17:46:33;0.52;;;0.32;;
54177;SDS011;40085;53.004;6.770;2022-09-20T17:49:05;0.75;;;0.47;;
54177;SDS011;40085;53.004;6.770;2022-09-20T17:51:38;1.33;;;0.40;;
54177;SDS011;40085;53.004;6.770;2022-09-20T17:54:06;0.68;;;0.30;;
54177;SDS011;40085;53.004;6.770;2022-09-20T17:56:32;3.58;;;0.82;;
54177;SDS011;40085;53.004;6.770;2022-09-20T17:59:03;1.77;;;0.50;;
54177;SDS011;40085;53.004;6.770;2022-09-20T18:01:31;0.60;;;0.52;;
54177;SDS011;40085;53.004;6.770;2022-09-20T18:03:58;1.13;;;0.45;;
54177;SDS011;40085;53.004;6.770;2022-09-20T18:06:29;2.45;;;0.60;;
54177;SDS011;40085;53.004;6.770;2022-09-20T18:08:58;2.58;;;0.73;;
54177;SDS011;40085;53.004;6.770;2022-09-20T18:11:26;3.05;;;0.60;;
54177;SDS011;40085;53.004;6.770;2022-09-20T18:13:53;2.55;;;0.63;;
54177;SDS011;40085;53.004;6.770;2022-09-20T18:16:19;4.45;;;0.82;;
54177;SDS011;40085;53.004;6.770;2022-09-20T18:18:45;0.93;;;0.52;;
54177;SDS011;40085;53.004;6.770;2022-09-20T18:21:23;2.67;;;1.02;;
54177;SDS011;40085;53.004;6.770;2022-09-20T18:23:50;1.77;;;0.90;;
54177;SDS011;40085;53.004;6.770;2022-09-20T18:26:20;3.95;;;1.20;;
54177;SDS011;40085;53.004;6.770;2022-09-20T18:28:59;2.53;;;0.90;;
54177;SDS011;40085;53.004;6.770;2022-09-20T18:31:30;1.48;;;0.80;;
54177;SDS011;40085;53.004;6.770;2022-09-20T18:34:00;3.00;;;0.90;;
54177;SDS011;40085;53.004;6.770;2022-09-20T18:36:32;2.15;;;0.70;;
54177;SDS011;40085;53.004;6.770;2022-09-20T18:39:00;0.52;;;0.35;;
54177;SDS011;40085;53.004;6.770;2022-09-20T18:41:28;1.02;;;0.43;;
54177;SDS011;40085;53.004;6.770;2022-09-20T18:46:25;1.48;;;0.45;;
54177;SDS011;40085;53.004;6.770;2022-09-20T18:49:01;0.32;;;0.32;;
54177;SDS011;40085;53.004;6.770;2022-09-20T18:51:30;0.50;;;0.40;;
54177;SDS011;40085;53.004;6.770;2022-09-20T18:53:57;0.32;;;0.32;;
54177;SDS011;40085;53.004;6.770;2022-09-20T18:58:54;1.75;;;0.52;;
54177;SDS011;40085;53.004;6.770;2022-09-20T19:13:05;2.85;;;0.70;;
54177;SDS011;40085;53.004;6.770;2022-09-20T19:26:17;1.30;;;0.63;;
54177;SDS011;40085;53.004;6.770;2022-09-20T19:28:44;1.08;;;0.60;;
54177;SDS011;40085;53.004;6.770;2022-09-20T19:31:32;1.77;;;0.57;;
54177;SDS011;40085;53.004;6.770;2022-09-20T19:33:58;2.13;;;0.73;;
54177;SDS011;40085;53.004;6.770;2022-09-20T19:36:38;2.10;;;0.60;;
54177;SDS011;40085;53.004;6.770;2022-09-20T19:39:18;2.05;;;0.47;;
54177;SDS011;40085;53.004;6.770;2022-09-20T19:51:56;1.83;;;0.57;;
54177;SDS011;40085;53.004;6.770;2022-09-20T19:54:22;1.50;;;0.70;;
54177;SDS011;40085;53.004;6.770;2022-09-20T19:56:55;0.63;;;0.60;;
54177;SDS011;40085;53.004;6.770;2022-09-20T19:59:23;2.03;;;0.55;;
54177;SDS011;40085;53.004;6.770;2022-09-20T20:01:50;2.78;;;0.63;;
54177;SDS011;40085;53.004;6.770;2022-09-20T20:04:17;2.53;;;0.70;;
54177;SDS011;40085;53.004;6.770;2022-09-20T20:06:47;7.00;;;1.10;;
54177;SDS011;40085;53.004;6.770;2022-09-20T20:19:58;4.22;;;1.77;;
54177;SDS011;40085;53.004;6.770;2022-09-20T20:25:34;4.80;;;1.80;;
54177;SDS011;40085;53.004;6.770;2022-09-20T20:28:14;2.65;;;1.35;;
54177;SDS011;40085;53.004;6.770;2022-09-20T20:30:40;4.25;;;1.70;;
54177;SDS011;40085;53.004;6.770;2022-09-20T20:33:06;5.35;;;1.60;;
54177;SDS011;40085;53.004;6.770;2022-09-20T20:35:32;6.90;;;3.22;;
54177;SDS011;40085;53.004;6.770;2022-09-20T20:37:58;12.93;;;4.10;;
54177;SDS011;40085;53.004;6.770;2022-09-20T20:40:23;24.33;;;8.75;;
54177;SDS011;40085;53.004;6.770;2022-09-20T20:42:54;16.55;;;6.70;;
54177;SDS011;40085;53.004;6.770;2022-09-20T20:45:26;7.22;;;3.00;;
54177;SDS011;40085;53.004;6.770;2022-09-20T20:47:55;5.22;;;3.03;;
54177;SDS011;40085;53.004;6.770;2022-09-20T20:50:23;4.97;;;2.20;;
54177;SDS011;40085;53.004;6.770;2022-09-20T20:52:53;4.00;;;1.95;;
54177;SDS011;40085;53.004;6.770;2022-09-20T20:55:20;3.78;;;1.83;;
54177;SDS011;40085;53.004;6.770;2022-09-20T20:57:53;3.90;;;1.98;;
54177;SDS011;40085;53.004;6.770;2022-09-20T21:00:22;2.90;;;1.73;;
54177;SDS011;40085;53.004;6.770;2022-09-20T21:02:54;2.83;;;1.50;;
54177;SDS011;40085;53.004;6.770;2022-09-20T21:05:21;5.63;;;2.40;;
54177;SDS011;40085;53.004;6.770;2022-09-20T21:07:51;6.40;;;3.38;;
54177;SDS011;40085;53.004;6.770;2022-09-20T21:10:17;4.88;;;2.03;;
54177;SDS011;40085;53.004;6.770;2022-09-20T21:12:43;4.43;;;2.22;;
54177;SDS011;40085;53.004;6.770;2022-09-20T21:15:09;3.67;;;1.85;;
54177;SDS011;40085;53.004;6.770;2022-09-20T21:17:36;6.70;;;2.45;;
54177;SDS011;40085;53.004;6.770;2022-09-20T21:20:02;8.95;;;3.70;;
54177;SDS011;40085;53.004;6.770;2022-09-20T21:22:28;14.05;;;5.25;;
54177;SDS011;40085;53.004;6.770;2022-09-20T21:24:53;4.80;;;2.42;;
54177;SDS011;40085;53.004;6.770;2022-09-20T21:27:19;6.07;;;2.28;;
54177;SDS011;40085;53.004;6.770;2022-09-20T21:29:45;2.28;;;1.42;;
54177;SDS011;40085;53.004;6.770;2022-09-20T21:32:11;1.85;;;0.98;;
54177;SDS011;40085;53.004;6.770;2022-09-20T21:34:38;4.25;;;1.10;;
54177;SDS011;40085;53.004;6.770;2022-09-20T21:37:03;4.60;;;1.15;;